sensor_id;sensor_type;location;lat;lon;timestamp;pressure;altitude;pressure_sealevel;temperature;humidity
21547;BME280;41275;51.912;4.388;2023-04-01T00:01:50;99103.53;;;15.81;58.13
21547;BME280;41275;51.912;4.388;2023-04-01T00:07:12;99117.47;;;15.78;58.12
21547;BME280;41275;51.912;4.388;2023-04-01T00:12:34;99110.16;;;15.84;57.98
21547;BME280;41275;51.912;4.388;2023-04-01T00:17:55;99119.28;;;15.69;58.27
21547;BME280;41275;51.912;4.388;2023-04-01T00:23:18;99131.22;;;15.71;58.44
21547;BME280;41275;51.912;4.388;2023-04-01T00:28:40;99137.44;;;15.67;58.02
21547;BME280;41275;51.912;4.388;2023-04-01T00:34:01;99142.09;;;15.61;57.78
21547;BME280;41275;51.912;4.388;2023-04-01T00:39:23;99130.19;;;15.45;58.19
21547;BME280;41275;51.912;4.388;2023-04-01T00:44:47;99145.56;;;15.48;58.49
21547;BME280;41275;51.912;4.388;2023-04-01T00:50:09;99154.06;;;15.36;58.70
21547;BME280;41275;51.912;4.388;2023-04-01T00:55:34;99155.03;;;15.40;58.81
21547;BME280;41275;51.912;4.388;2023-04-01T01:00:57;99163.34;;;15.39;58.58
21547;BME280;41275;51.912;4.388;2023-04-01T01:18:09;99172.06;;;15.44;58.69
21547;BME280;41275;51.912;4.388;2023-04-01T01:35:05;99175.91;;;15.38;58.68
21547;BME280;41275;51.912;4.388;2023-04-01T01:40:28;99194.88;;;15.37;58.69
21547;BME280;41275;51.912;4.388;2023-04-01T01:45:56;99188.63;;;15.28;58.39
21547;BME280;41275;51.912;4.388;2023-04-01T01:51:21;99195.44;;;15.34;58.64
21547;BME280;41275;51.912;4.388;2023-04-01T01:56:51;99209.88;;;15.33;58.52
21547;BME280;41275;51.912;4.388;2023-04-01T02:02:16;99206.13;;;15.34;58.80
21547;BME280;41275;51.912;4.388;2023-04-01T02:07:39;99210.06;;;15.22;58.68
21547;BME280;41275;51.912;4.388;2023-04-01T02:13:07;99217.75;;;15.24;59.01
21547;BME280;41275;51.912;4.388;2023-04-01T02:18:33;99235.72;;;15.18;58.88
21547;BME280;41275;51.912;4.388;2023-04-01T02:23:57;99236.19;;;15.20;58.88
21547;BME280;41275;51.912;4.388;2023-04-01T02:29:23;99242.03;;;15.22;58.22
21547;BME280;41275;51.912;4.388;2023-04-01T02:34:47;99244.09;;;15.12;59.25
21547;BME280;41275;51.912;4.388;2023-04-01T02:40:12;99245.66;;;15.13;59.15
21547;BME280;41275;51.912;4.388;2023-04-01T02:45:33;99252.97;;;15.07;59.27
21547;BME280;41275;51.912;4.388;2023-04-01T02:50:54;99256.31;;;15.13;59.01
21547;BME280;41275;51.912;4.388;2023-04-01T02:56:16;99261.47;;;15.09;59.29
21547;BME280;41275;51.912;4.388;2023-04-01T03:01:38;99268.06;;;15.12;59.13
21547;BME280;41275;51.912;4.388;2023-04-01T03:06:59;99280.22;;;15.18;59.14
21547;BME280;41275;51.912;4.388;2023-04-01T03:12:20;99290.00;;;15.22;59.08
21547;BME280;41275;51.912;4.388;2023-04-01T03:17:42;99306.00;;;15.22;59.45
21547;BME280;41275;51.912;4.388;2023-04-01T03:23:03;99307.56;;;15.23;59.33
21547;BME280;41275;51.912;4.388;2023-04-01T03:28:24;99312.88;;;15.23;59.29
21547;BME280;41275;51.912;4.388;2023-04-01T03:33:46;99315.47;;;15.29;59.64
21547;BME280;41275;51.912;4.388;2023-04-01T03:39:07;99329.50;;;15.34;59.65
21547;BME280;41275;51.912;4.388;2023-04-01T03:44:33;99348.16;;;15.34;59.29
21547;BME280;41275;51.912;4.388;2023-04-01T03:49:54;99343.03;;;15.38;59.73
21547;BME280;41275;51.912;4.388;2023-04-01T03:55:15;99356.00;;;15.44;59.58
21547;BME280;41275;51.912;4.388;2023-04-01T04:00:37;99365.63;;;15.40;59.91
21547;BME280;41275;51.912;4.388;2023-04-01T04:05:58;99370.09;;;15.45;59.63
21547;BME280;41275;51.912;4.388;2023-04-01T04:11:22;99383.72;;;15.43;59.25
21547;BME280;41275;51.912;4.388;2023-04-01T04:16:43;99390.91;;;15.43;59.42
21547;BME280;41275;51.912;4.388;2023-04-01T04:22:04;99403.97;;;15.44;59.49
21547;BME280;41275;51.912;4.388;2023-04-01T04:27:25;99413.34;;;15.42;59.79
21547;BME280;41275;51.912;4.388;2023-04-01T04:32:47;99418.38;;;15.43;59.70
21547;BME280;41275;51.912;4.388;2023-04-01T04:38:08;99432.47;;;15.44;59.78
21547;BME280;41275;51.912;4.388;2023-04-01T04:43:29;99433.56;;;15.43;59.63
21547;BME280;41275;51.912;4.388;2023-04-01T04:48:50;99441.66;;;15.38;59.79
21547;BME280;41275;51.912;4.388;2023-04-01T04:54:11;99449.94;;;15.36;59.87
21547;BME280;41275;51.912;4.388;2023-04-01T04:59:33;99459.81;;;15.36;59.85
21547;BME280;41275;51.912;4.388;2023-04-01T05:04:54;99481.13;;;15.36;59.75
21547;BME280;41275;51.912;4.388;2023-04-01T05:10:15;99479.56;;;15.35;59.96
21547;BME280;41275;51.912;4.388;2023-04-01T05:15:36;99503.53;;;15.35;60.10
21547;BME280;41275;51.912;4.388;2023-04-01T05:20:58;99502.25;;;15.32;60.06
21547;BME280;41275;51.912;4.388;2023-04-01T05:26:19;99508.88;;;15.35;60.13
21547;BME280;41275;51.912;4.388;2023-04-01T05:31:40;99509.19;;;15.33;59.59
21547;BME280;41275;51.912;4.388;2023-04-01T05:37:01;99530.13;;;15.40;59.65
21547;BME280;41275;51.912;4.388;2023-04-01T05:42:23;99541.88;;;15.39;60.08
21547;BME280;41275;51.912;4.388;2023-04-01T05:47:44;99554.41;;;15.38;60.18
21547;BME280;41275;51.912;4.388;2023-04-01T05:53:05;99565.00;;;15.43;59.88
21547;BME280;41275;51.912;4.388;2023-04-01T05:58:26;99569.31;;;15.39;59.96
21547;BME280;41275;51.912;4.388;2023-04-01T06:03:48;99586.88;;;15.40;59.80
21547;BME280;41275;51.912;4.388;2023-04-01T06:09:18;99596.28;;;15.38;59.52
21547;BME280;41275;51.912;4.388;2023-04-01T06:15:02;99619.03;;;15.49;59.42
21547;BME280;41275;51.912;4.388;2023-04-01T06:26:34;99625.97;;;15.50;59.64
21547;BME280;41275;51.912;4.388;2023-04-01T06:49:48;99643.69;;;15.41;59.42
21547;BME280;41275;51.912;4.388;2023-04-01T06:55:26;99653.25;;;15.42;59.58
21547;BME280;41275;51.912;4.388;2023-04-01T07:00:50;99646.06;;;15.42;59.33
21547;BME280;41275;51.912;4.388;2023-04-01T07:06:26;99664.16;;;15.45;59.46
21547;BME280;41275;51.912;4.388;2023-04-01T07:11:50;99672.88;;;15.51;59.50
21547;BME280;41275;51.912;4.388;2023-04-01T07:17:22;99671.59;;;15.49;59.17
21547;BME280;41275;51.912;4.388;2023-04-01T07:22:52;99687.22;;;15.55;59.79
21547;BME280;41275;51.912;4.388;2023-04-01T07:28:16;99686.56;;;15.63;59.18
21547;BME280;41275;51.912;4.388;2023-04-01T07:45:22;99707.47;;;15.56;59.25
21547;BME280;41275;51.912;4.388;2023-04-01T07:50:59;99721.31;;;15.58;59.36
21547;BME280;41275;51.912;4.388;2023-04-01T07:56:30;99732.31;;;15.52;59.29
21547;BME280;41275;51.912;4.388;2023-04-01T08:08:17;99747.28;;;15.71;59.40
21547;BME280;41275;51.912;4.388;2023-04-01T08:24:42;99779.59;;;15.70;58.93
21547;BME280;41275;51.912;4.388;2023-04-01T08:30:24;99789.34;;;15.80;59.04
21547;BME280;41275;51.912;4.388;2023-04-01T08:47:23;99806.34;;;16.08;58.84
21547;BME280;41275;51.912;4.388;2023-04-01T08:53:06;99807.00;;;16.00;58.44
21547;BME280;41275;51.912;4.388;2023-04-01T08:58:46;99812.47;;;16.08;58.23
21547;BME280;41275;51.912;4.388;2023-04-01T09:04:25;99815.00;;;16.00;58.40
21547;BME280;41275;51.912;4.388;2023-04-01T09:09:51;99825.75;;;16.13;58.58
21547;BME280;41275;51.912;4.388;2023-04-01T09:15:42;99837.22;;;16.33;58.00
21547;BME280;41275;51.912;4.388;2023-04-01T09:27:02;99845.00;;;16.29;57.95
21547;BME280;41275;51.912;4.388;2023-04-01T09:32:27;99855.28;;;16.41;58.32
21547;BME280;41275;51.912;4.388;2023-04-01T09:44:02;99859.59;;;16.37;57.90
21547;BME280;41275;51.912;4.388;2023-04-01T09:49:40;99883.13;;;16.35;57.76
21547;BME280;41275;51.912;4.388;2023-04-01T10:41:08;99920.59;;;16.06;57.07
21547;BME280;41275;51.912;4.388;2023-04-01T10:52:12;99926.00;;;15.71;57.60
21547;BME280;41275;51.912;4.388;2023-04-01T10:58:20;99935.38;;;15.69;57.42
21547;BME280;41275;51.912;4.388;2023-04-01T11:15:56;99940.97;;;15.67;57.78
21547;BME280;41275;51.912;4.388;2023-04-01T11:27:25;99962.72;;;15.80;58.18
21547;BME280;41275;51.912;4.388;2023-04-01T11:33:04;99965.13;;;15.81;57.88
21547;BME280;41275;51.912;4.388;2023-04-01T11:39:12;99975.50;;;15.88;58.26
21547;BME280;41275;51.912;4.388;2023-04-01T11:44:30;99973.38;;;15.85;58.43
21547;BME280;41275;51.912;4.388;2023-04-01T11:55:59;99997.19;;;16.05;58.37
21547;BME280;41275;51.912;4.388;2023-04-01T12:07:11;100008.59;;;16.11;58.27
21547;BME280;41275;51.912;4.388;2023-04-01T12:12:39;100010.53;;;16.05;58.54
21547;BME280;41275;51.912;4.388;2023-04-01T12:18:28;100013.94;;;16.11;58.64
21547;BME280;41275;51.912;4.388;2023-04-01T12:24:20;100023.34;;;16.03;58.28
21547;BME280;41275;51.912;4.388;2023-04-01T12:29:54;100033.88;;;16.18;58.42
21547;BME280;41275;51.912;4.388;2023-04-01T12:35:24;100039.06;;;16.34;58.52
21547;BME280;41275;51.912;4.388;2023-04-01T12:47:06;100052.94;;;16.36;58.26
21547;BME280;41275;51.912;4.388;2023-04-01T12:53:05;100056.56;;;16.45;58.35
21547;BME280;41275;51.912;4.388;2023-04-01T13:10:16;100071.00;;;16.68;57.78
21547;BME280;41275;51.912;4.388;2023-04-01T13:15:49;100067.25;;;16.69;57.52
21547;BME280;41275;51.912;4.388;2023-04-01T13:21:21;100084.00;;;16.80;57.29
21547;BME280;41275;51.912;4.388;2023-04-01T13:26:58;100094.03;;;16.88;56.88
21547;BME280;41275;51.912;4.388;2023-04-01T13:32:32;100102.75;;;16.75;57.05
21547;BME280;41275;51.912;4.388;2023-04-01T13:38:14;100113.72;;;16.73;56.84
21547;BME280;41275;51.912;4.388;2023-04-01T13:56:12;100118.00;;;16.98;56.35
21547;BME280;41275;51.912;4.388;2023-04-01T14:30:16;100154.63;;;17.16;55.19
21547;BME280;41275;51.912;4.388;2023-04-01T14:42:03;100179.28;;;17.13;55.23
21547;BME280;41275;51.912;4.388;2023-04-01T14:47:15;100190.38;;;17.45;54.74
21547;BME280;41275;51.912;4.388;2023-04-01T14:52:52;100197.06;;;17.47;54.63
21547;BME280;41275;51.912;4.388;2023-04-01T14:58:18;100201.78;;;17.31;54.26
21547;BME280;41275;51.912;4.388;2023-04-01T15:03:51;100201.00;;;17.31;54.53
21547;BME280;41275;51.912;4.388;2023-04-01T15:09:18;100205.81;;;17.72;54.08
21547;BME280;41275;51.912;4.388;2023-04-01T15:15:00;100217.59;;;17.71;54.06
21547;BME280;41275;51.912;4.388;2023-04-01T15:21:25;100222.84;;;17.38;54.40
21547;BME280;41275;51.912;4.388;2023-04-01T15:38:27;100246.41;;;17.12;55.35
21547;BME280;41275;51.912;4.388;2023-04-01T15:43:51;100260.38;;;17.04;54.99
21547;BME280;41275;51.912;4.388;2023-04-01T15:49:37;100260.81;;;16.87;56.00
21547;BME280;41275;51.912;4.388;2023-04-01T15:55:19;100269.63;;;16.87;55.72
21547;BME280;41275;51.912;4.388;2023-04-01T16:00:46;100272.97;;;17.03;55.99
21547;BME280;41275;51.912;4.388;2023-04-01T16:12:38;100288.41;;;16.77;56.18
21547;BME280;41275;51.912;4.388;2023-04-01T16:18:17;100304.47;;;16.72;56.38
21547;BME280;41275;51.912;4.388;2023-04-01T16:23:54;100317.28;;;16.70;56.92
21547;BME280;41275;51.912;4.388;2023-04-01T16:41:05;100344.97;;;16.89;56.70
21547;BME280;41275;51.912;4.388;2023-04-01T16:46:43;100356.75;;;16.88;56.53
21547;BME280;41275;51.912;4.388;2023-04-01T16:52:14;100367.13;;;16.95;55.94
21547;BME280;41275;51.912;4.388;2023-04-01T17:03:57;100395.31;;;17.11;56.65
21547;BME280;41275;51.912;4.388;2023-04-01T17:09:35;100400.38;;;17.13;56.13
21547;BME280;41275;51.912;4.388;2023-04-01T17:15:21;100413.41;;;16.90;56.71
21547;BME280;41275;51.912;4.388;2023-04-01T17:20:59;100443.09;;;16.84;57.00
21547;BME280;41275;51.912;4.388;2023-04-01T17:26:33;100438.50;;;16.95;56.65
21547;BME280;41275;51.912;4.388;2023-04-01T17:32:11;100457.75;;;16.91;56.62
21547;BME280;41275;51.912;4.388;2023-04-01T17:43:45;100495.13;;;17.02;56.68
21547;BME280;41275;51.912;4.388;2023-04-01T18:00:50;100525.66;;;16.85;56.00
21547;BME280;41275;51.912;4.388;2023-04-01T18:11:56;100546.56;;;16.73;55.62
21547;BME280;41275;51.912;4.388;2023-04-01T18:22:58;100577.31;;;16.60;55.45
21547;BME280;41275;51.912;4.388;2023-04-01T18:28:38;100587.22;;;16.60;55.99
21547;BME280;41275;51.912;4.388;2023-04-01T18:34:17;100603.50;;;16.53;55.71
21547;BME280;41275;51.912;4.388;2023-04-01T18:39:42;100615.00;;;16.54;55.72
21547;BME280;41275;51.912;4.388;2023-04-01T18:45:14;100632.91;;;16.53;55.41
21547;BME280;41275;51.912;4.388;2023-04-01T18:50:57;100646.78;;;16.50;55.46
21547;BME280;41275;51.912;4.388;2023-04-01T18:56:28;100660.41;;;16.54;55.05
21547;BME280;41275;51.912;4.388;2023-04-01T19:02:02;100670.03;;;16.50;55.45
21547;BME280;41275;51.912;4.388;2023-04-01T19:07:47;100688.47;;;16.36;55.25
21547;BME280;41275;51.912;4.388;2023-04-01T19:13:18;100691.41;;;16.29;54.92
21547;BME280;41275;51.912;4.388;2023-04-01T19:19:05;100707.16;;;16.20;54.94
21547;BME280;41275;51.912;4.388;2023-04-01T19:30:10;100724.00;;;16.21;55.31
21547;BME280;41275;51.912;4.388;2023-04-01T19:35:52;100743.47;;;16.16;54.90
21547;BME280;41275;51.912;4.388;2023-04-01T19:41:46;100750.41;;;16.17;55.05
21547;BME280;41275;51.912;4.388;2023-04-01T19:53:31;100778.66;;;16.03;54.62
21547;BME280;41275;51.912;4.388;2023-04-01T20:04:28;100783.75;;;16.05;54.64
21547;BME280;41275;51.912;4.388;2023-04-01T20:10:08;100800.03;;;15.98;54.57
21547;BME280;41275;51.912;4.388;2023-04-01T20:15:36;100819.25;;;16.00;54.36
21547;BME280;41275;51.912;4.388;2023-04-01T20:21:06;100829.91;;;15.95;54.49
21547;BME280;41275;51.912;4.388;2023-04-01T20:26:40;100844.31;;;15.89;54.25
21547;BME280;41275;51.912;4.388;2023-04-01T20:32:15;100853.06;;;15.79;54.65
21547;BME280;41275;51.912;4.388;2023-04-01T20:49:05;100883.06;;;15.59;54.07
21547;BME280;41275;51.912;4.388;2023-04-01T20:55:52;100892.94;;;15.59;54.21
21547;BME280;41275;51.912;4.388;2023-04-01T21:00:52;100911.16;;;15.67;54.31
21547;BME280;41275;51.912;4.388;2023-04-01T21:06:29;100929.78;;;15.62;53.81
21547;BME280;41275;51.912;4.388;2023-04-01T21:35:53;100996.34;;;15.46;53.36
21547;BME280;41275;51.912;4.388;2023-04-01T22:04:34;101052.63;;;15.18;52.43
21547;BME280;41275;51.912;4.388;2023-04-01T22:38:53;101098.00;;;14.79;52.12
21547;BME280;41275;51.912;4.388;2023-04-01T22:44:42;101113.63;;;14.70;51.66
21547;BME280;41275;51.912;4.388;2023-04-01T22:50:20;101129.53;;;14.65;51.73
21547;BME280;41275;51.912;4.388;2023-04-01T22:55:44;101142.34;;;14.68;51.84
21547;BME280;41275;51.912;4.388;2023-04-01T23:01:17;101155.19;;;14.71;52.11
21547;BME280;41275;51.912;4.388;2023-04-01T23:06:46;101162.13;;;14.72;51.88
21547;BME280;41275;51.912;4.388;2023-04-01T23:12:13;101163.44;;;14.70;51.76
21547;BME280;41275;51.912;4.388;2023-04-01T23:17:45;101167.31;;;14.62;51.91
21547;BME280;41275;51.912;4.388;2023-04-01T23:23:26;101181.06;;;14.54;52.25
21547;BME280;41275;51.912;4.388;2023-04-01T23:28:54;101189.59;;;14.56;52.32
21547;BME280;41275;51.912;4.388;2023-04-01T23:34:23;101189.53;;;14.51;52.27
21547;BME280;41275;51.912;4.388;2023-04-01T23:39:46;101204.69;;;14.51;52.26
21547;BME280;41275;51.912;4.388;2023-04-01T23:45:15;101207.44;;;14.56;52.14
21547;BME280;41275;51.912;4.388;2023-04-01T23:50:44;101225.41;;;14.48;52.12
21547;BME280;41275;51.912;4.388;2023-04-01T23:56:06;101228.88;;;14.49;51.82
